Latest Weather Observations for Lochington

IDQ60801

Issued at 11:35 am EST Saturday 19 April 2014 (issued every 30 minutes, with the page automatically refreshed every 10 minutes)

About weather observations | Map of weather stations | Latest weather observations for QLD | Other Formats
Station Details ID: 035139 Name: LOCHINGTON Lat: -23.94 Lon: 147.53 Height: 267.19 m
Data from the previous 72 hours. | See also: Recent months at Lochington
Date/Time
EST
Temp
°C
App
Temp
°C
Dew
Point
Rel
Hum
%
Delta-T
°C
Wind Press
QNH
hPa
Press
MSL
hPa
Rain
since 9 am
mm
Dir
 
Spd
km/h
Gust
km/h
Spd
kts
Gust
kts
19/11:30am 27.7 25.4 7.5 28 10.9 NE 9 19 5 10 1017.2 - 0.0
19/11:00am 28.0 25.8 7.8 28 11.0 NE 9 17 5 9 1017.8 1016.6 0.0
19/10:30am 27.2 24.4 7.1 28 10.8 E 11 17 6 9 1018.2 - 0.0
19/10:00am 26.1 23.9 7.7 31 9.9 ENE 9 17 5 9 1018.6 1017.4 0.0
19/09:30am 25.1 23.1 8.6 35 9.0 E 9 13 5 7 1018.8 - 0.0
19/09:00am 23.5 21.5 7.2 35 8.6 ESE 7 13 4 7 1018.9 1017.7 0.0
19/08:30am 22.2 20.4 7.2 38 7.8 E 6 7 3 4 1018.9 - 0.0
19/08:00am 19.8 19.4 8.2 47 6.1 CALM 0 0 0 0 1018.9 1017.7 0.0
19/07:30am 16.5 15.5 9.0 61 3.9 WNW 4 6 2 3 1018.8 - 0.0
19/07:00am 14.1 12.7 8.7 70 2.8 NW 6 7 3 4 1018.5 1017.3 0.0
19/06:30am 12.1 10.4 8.2 77 1.9 WNW 7 9 4 5 1018.2 - 0.0
19/06:00am 12.7 12.3 8.2 74 2.3 CALM 0 0 0 0 1017.8 1016.6 0.0
19/05:30am 12.9 12.4 7.8 71 2.5 CALM 0 0 0 0 1017.7 - 0.0
19/05:00am 13.7 13.3 8.3 70 2.7 CALM 0 0 0 0 1017.7 1016.5 0.0
19/04:30am 14.3 14.0 8.7 69 2.9 CALM 0 0 0 0 1017.5 - 0.0
19/04:00am 13.8 13.2 7.6 66 3.1 CALM 0 0 0 0 1017.4 1016.2 0.0
19/03:30am 15.5 14.7 8.3 62 3.7 NW 2 4 1 2 1017.4 - 0.0
19/03:00am 15.5 14.1 8.7 64 3.5 NW 6 6 3 3 1017.4 1016.2 0.0
19/02:30am 15.5 13.9 8.0 61 3.8 WNW 6 7 3 4 1017.5 - 0.0
19/02:00am 15.7 14.2 8.4 62 3.7 NNW 6 9 3 5 1017.5 1016.3 0.0
19/01:30am 15.9 14.9 8.9 63 3.6 W 4 4 2 2 1017.5 - 0.0
19/01:00am 16.6 16.2 8.1 57 4.4 CALM 0 2 0 1 1017.6 1016.4 0.0
19/12:30am 16.1 15.3 8.3 60 4.0 WNW 2 7 1 4 1017.7 - 0.0
19/12:00am 17.8 17.4 8.1 53 5.0 SSE 0 0 0 0 1017.4 1016.2 0.0
 
Date/Time
EST
Temp
°C
App
Temp
°C
Dew
Point
Rel
Hum
%
Delta-T
°C
Wind Press
QNH
hPa
Press
MSL
hPa
Rain
since 9 am
mm
Dir
 
Spd
km/h
Gust
km/h
Spd
kts
Gust
kts
18/11:30pm 18.0 17.2 8.0 52 5.2 W 2 4 1 2 1017.4 - 0.0
18/11:00pm 18.4 16.9 8.4 52 5.2 WSW 6 13 3 7 1017.3 1016.1 0.0
18/10:30pm 19.5 18.3 8.2 48 5.9 N 4 6 2 3 1017.1 - 0.0
18/10:00pm 19.2 18.6 7.3 46 6.1 CALM 0 0 0 0 1017.1 1015.9 0.0
18/09:30pm 22.3 20.1 7.7 39 7.7 E 9 13 5 7 1016.9 - 0.0
18/09:00pm 20.0 17.5 6.7 42 6.8 E 9 17 5 9 1016.8 1015.5 0.0
18/08:30pm 21.0 20.3 6.9 40 7.3 CALM 0 0 0 0 1016.4 - 0.0
18/08:00pm 22.5 21.7 6.7 36 8.2 CALM 0 0 0 0 1016.2 1014.9 0.0
18/07:30pm 23.4 22.5 6.2 33 8.9 CALM 0 0 0 0 1015.9 - 0.0
18/07:00pm 24.7 23.0 6.0 30 9.7 S 4 4 2 2 1015.6 1014.4 0.0
18/06:30pm 26.1 24.6 6.7 29 10.3 S 4 6 2 3 1015.3 - 0.0
18/06:00pm 27.2 25.3 6.6 27 11.0 SSW 6 9 3 5 1015.0 1013.8 0.0
18/05:30pm 28.6 26.6 7.2 26 11.6 SSW 7 11 4 6 1014.8 - 0.0
18/05:00pm 29.8 27.8 7.1 24 12.4 SW 7 13 4 7 1014.4 1013.2 0.0
18/04:30pm 30.3 28.3 6.9 23 12.7 S 7 17 4 9 1014.2 - 0.0
18/04:00pm 30.4 28.5 7.6 24 12.6 WSW 7 17 4 9 1013.9 1012.7 0.0
18/03:30pm 31.0 29.1 7.5 23 13.0 W 7 15 4 8 1013.8 - 0.0
18/03:00pm 30.0 29.3 8.4 26 12.0 WSW 2 6 1 3 1014.0 1012.8 0.0
18/02:30pm 29.1 27.5 8.2 27 11.6 SW 6 11 3 6 1014.3 - 0.0
18/02:00pm 31.1 29.5 8.8 25 12.6 SW 7 15 4 8 1014.6 1013.4 0.0
18/01:30pm 30.5 28.7 9.4 27 12.0 NW 9 15 5 8 1014.8 - 0.0
18/01:00pm 28.9 27.7 9.6 30 10.9 E 6 13 3 7 1015.4 1014.2 0.0
18/12:30pm 29.9 28.8 10.5 30 11.2 SE 7 20 4 11 1015.7 - 0.0
18/12:00pm 28.9 28.4 10.6 32 10.5 NNE 4 13 2 7 1016.3 1015.0 0.0
18/11:30am 27.9 26.6 10.1 33 10.1 ENE 7 11 4 6 1016.9 - 0.0
18/11:00am 27.2 25.3 10.4 35 9.5 NE 11 19 6 10 1017.3 1016.1 0.0
18/10:30am 27.2 25.3 10.4 35 9.5 ENE 11 19 6 10 1017.8 - 0.0
18/10:00am 27.0 25.3 9.8 34 9.6 E 9 17 5 9 1018.1 1016.9 0.0
18/09:30am 26.3 23.4 8.3 32 9.8 E 13 20 7 11 1018.2 - 0.0
18/09:00am 25.5 23.0 8.1 33 9.4 E 11 19 6 10 1018.4 1017.2 0.0
18/08:30am 24.4 21.9 8.4 36 8.7 E 11 17 6 9 1018.4 - 0.0
18/08:00am 23.2 21.2 8.5 39 7.9 ESE 9 13 5 7 1018.2 1017.0 0.0
18/07:30am 19.4 20.0 11.9 62 4.2 CALM 0 0 0 0 1018.1 - 0.0
18/07:00am 17.1 17.7 11.8 71 2.9 CALM 0 2 0 1 1017.8 1016.6 0.0
18/06:30am 16.8 16.7 10.9 68 3.2 NW 2 6 1 3 1017.6 - 0.0
18/06:00am 18.2 17.1 9.8 58 4.5 E 6 7 3 4 1017.3 1016.1 0.0
18/05:30am 19.2 17.9 9.9 55 5.0 E 7 11 4 6 1017.2 - 0.0
18/05:00am 19.8 18.6 10.2 54 5.2 ENE 7 9 4 5 1017.1 1015.9 0.0
18/04:30am 20.5 19.0 10.6 53 5.5 E 9 13 5 7 1017.0 - 0.0
18/04:00am 20.8 19.6 11.7 56 5.1 ESE 9 13 5 7 1016.9 1015.6 0.0
18/03:30am 20.2 19.6 12.2 60 4.5 E 7 9 4 5 1016.9 - 0.0
18/03:00am 19.6 18.8 11.6 60 4.5 ESE 7 9 4 5 1016.9 1015.6 0.0
18/02:30am 20.2 19.6 11.7 58 4.8 ESE 6 9 3 5 1016.9 - 0.0
18/02:00am 20.1 20.0 12.1 60 4.5 ESE 4 6 2 3 1016.9 1015.6 0.0
18/01:30am 20.2 20.4 11.9 59 4.7 E 2 4 1 2 1017.1 - 0.0
18/01:00am 21.2 20.1 12.1 56 5.2 ENE 9 11 5 6 1017.3 1016.1 0.0
18/12:30am 22.9 20.6 11.6 49 6.4 ESE 15 26 8 14 1017.4 - 0.0
18/12:00am 22.8 22.1 13.3 55 5.5 ESE 9 19 5 10 1017.4 1016.2 0.0
 
Date/Time
EST
Temp
°C
App
Temp
°C
Dew
Point
Rel
Hum
%
Delta-T
°C
Wind Press
QNH
hPa
Press
MSL
hPa
Rain
since 9 am
mm
Dir
 
Spd
km/h
Gust
km/h
Spd
kts
Gust
kts
17/11:30pm 19.6 20.0 11.1 58 4.7 CALM 0 2 0 1 1017.4 - 0.0
17/11:00pm 20.2 19.9 11.4 57 4.9 WSW 4 6 2 3 1017.5 1016.3 0.0
17/10:30pm 20.5 20.3 11.7 57 4.9 WSW 4 6 2 3 1017.5 - 0.0
17/10:00pm 20.8 20.3 12.0 57 5.0 W 6 9 3 5 1017.4 1016.2 0.0
17/09:30pm 21.8 21.4 11.2 51 5.9 SSE 4 7 2 4 1017.1 - 0.0
17/09:00pm 23.0 22.6 12.3 51 6.1 NNE 6 6 3 3 1016.7 1015.4 0.0
17/08:30pm 23.7 23.8 12.7 50 6.4 ENE 4 7 2 4 1016.4 - 0.0
17/08:00pm 24.3 24.6 12.3 47 6.9 N 2 2 1 1 1016.0 1014.8 0.0
17/07:30pm 26.6 26.2 12.3 41 8.4 N 6 9 3 5 1015.6 - 0.0
17/07:00pm 27.0 26.5 11.9 39 8.8 NE 6 7 3 4 1015.2 1014.0 0.0
17/06:30pm 27.7 27.7 11.3 36 9.5 S 2 7 1 4 1014.9 - 0.0
17/06:00pm 28.4 28.4 11.0 34 10.0 SSW 2 4 1 2 1014.6 1013.4 0.0
17/05:30pm 29.2 28.5 11.3 33 10.4 SW 6 11 3 6 1014.4 - 0.0
17/05:00pm 30.9 30.1 11.8 31 11.3 W 7 11 4 6 1014.1 1012.9 0.0
17/04:30pm 30.9 30.0 11.3 30 11.5 WNW 7 13 4 7 1013.9 - 0.0
17/04:00pm 29.4 28.2 11.5 33 10.5 NW 9 15 5 8 1013.8 1012.6 0.0
17/03:30pm 30.1 28.1 11.6 32 10.9 WNW 13 17 7 9 1013.8 - 0.0
17/03:00pm 31.1 29.9 11.5 30 11.5 WNW 9 15 5 8 1013.9 1012.7 0.0
17/02:30pm 29.3 26.8 10.9 32 10.6 WNW 15 22 8 12 1014.3 - 0.0
17/02:00pm 31.0 28.5 9.8 27 12.1 W 13 20 7 11 1014.6 1013.4 0.0
17/01:30pm 29.7 28.8 11.2 31 10.8 WSW 7 15 4 8 1015.0 - 0.0
17/01:00pm 30.0 30.7 14.5 38 9.5 W 4 9 2 5 1015.6 1014.4 0.0
17/12:30pm 29.4 29.9 15.1 41 8.8 WNW 6 15 3 8 1016.2 - 0.0
17/12:00pm 29.1 30.7 17.9 50 7.2 NE 6 9 3 5 1017.0 1015.8 0.0
17/11:30am 28.2 29.6 17.4 52 6.9 NNE 6 11 3 6 1017.6 - 0.0
17/11:00am 27.4 29.5 18.1 57 6.0 ENE 4 11 2 6 1018.1 1016.9 0.0
17/10:30am 25.9 28.1 18.3 63 4.9 NNE 4 9 2 5 1018.5 - 0.0
17/10:00am 23.9 25.7 18.3 71 3.6 NNW 6 11 3 6 1018.8 1017.6 0.0
17/09:30am 22.5 24.1 18.3 77 2.7 N 7 11 4 6 1018.9 - 0.0
17/09:00am 21.8 23.4 18.2 80 2.3 NNE 7 11 4 6 1018.8 1017.6 0.0
17/08:30am 21.7 23.4 18.1 80 2.3 NE 6 11 3 6 1018.5 - 0.0
17/08:00am 20.8 23.0 16.6 77 2.6 CALM 0 0 0 0 1018.4 1017.2 0.0
17/07:30am 18.8 20.8 16.0 84 1.7 CALM 0 0 0 0 1018.2 - 0.0
17/07:00am 17.0 18.4 14.5 85 1.5 CALM 0 0 0 0 1017.8 1016.6 0.0
17/06:30am 16.2 17.3 13.5 84 1.5 CALM 0 2 0 1 1017.5 - 0.0
17/06:00am 16.8 17.2 13.7 82 1.8 NNE 4 6 2 3 1017.1 1015.9 0.0
17/05:30am 17.2 18.4 13.9 81 1.9 CALM 0 0 0 0 1016.9 - 0.0
17/05:00am 17.4 18.6 13.9 80 2.0 CALM 0 0 0 0 1016.7 1015.4 0.0
17/04:30am 17.9 18.5 14.2 79 2.1 WNW 4 6 2 3 1016.4 - 0.0
17/04:00am 18.0 19.3 14.1 78 2.3 CALM 0 0 0 0 1016.2 1014.9 0.0
17/03:30am 18.5 19.8 14.2 76 2.5 CALM 0 0 0 0 1015.9 - 0.0
17/03:00am 19.4 20.1 14.4 73 2.9 E 4 6 2 3 1015.7 1014.5 0.0
17/02:30am 19.7 19.9 14.1 70 3.3 ESE 6 7 3 4 1015.6 - 0.0
17/02:00am 20.8 21.2 14.7 68 3.6 E 6 7 3 4 1015.7 1014.5 0.0
17/01:30am 20.4 21.0 14.3 68 3.6 E 4 6 2 3 1015.9 - 0.0
17/01:00am 20.8 20.8 14.2 66 3.9 ESE 7 7 4 4 1016.0 1014.8 0.0
17/12:30am 21.7 21.8 14.4 63 4.3 ESE 7 11 4 6 1016.2 - 0.0
17/12:00am 22.0 21.5 14.9 64 4.2 ESE 11 15 6 8 1016.2 1014.9 0.0
 
Date/Time
EST
Temp
°C
App
Temp
°C
Dew
Point
Rel
Hum
%
Delta-T
°C
Wind Press
QNH
hPa
Press
MSL
hPa
Rain
since 9 am
mm
Dir
 
Spd
km/h
Gust
km/h
Spd
kts
Gust
kts
16/11:30pm 20.3 19.9 12.5 61 4.4 SSE 6 9 3 5 1016.2 - 0.0
16/11:00pm 21.9 21.4 11.9 53 5.7 E 6 7 3 4 1015.9 1014.7 0.0
16/10:30pm 21.4 21.6 11.7 54 5.5 W 2 6 1 3 1015.8 - 0.0
16/10:00pm 22.3 21.8 12.0 52 5.9 E 6 17 3 9 1015.7 1014.5 0.0
16/09:30pm 22.6 22.2 12.3 52 5.9 WSW 6 9 3 5 1015.4 - 0.0
16/09:00pm 22.3 23.1 12.5 53 5.6 CALM 0 0 0 0 1014.9 1013.7 0.0
16/08:30pm 22.6 23.2 12.0 51 6.1 CALM 0 0 0 0 1014.8 - 0.0
16/08:00pm 23.6 24.1 11.6 47 6.8 CALM 0 0 0 0 1014.4 1013.2 0.0
16/07:30pm 24.9 25.2 10.8 41 8.0 CALM 0 2 0 1 1014.1 - 0.0
16/07:00pm 25.6 25.7 10.2 38 8.7 CALM 0 0 0 0 1013.8 1012.6 0.0
16/06:30pm 26.7 26.4 10.0 35 9.4 S 2 4 1 2 1013.5 - 0.0
16/06:00pm 28.1 27.1 10.3 33 10.1 S 6 7 3 4 1013.2 1011.9 0.0
16/05:30pm 29.3 28.0 9.9 30 11.0 S 7 15 4 8 1013.1 - 0.0
16/05:00pm 30.3 29.1 10.3 29 11.5 SSW 7 13 4 7 1012.9 1011.6 0.0
16/04:30pm 29.8 28.1 9.9 29 11.3 S 9 15 5 8 1012.7 - 0.0
16/04:00pm 31.6 29.6 10.3 27 12.3 SSW 11 19 6 10 1012.7 1011.4 0.0
16/03:30pm 31.8 29.7 9.9 26 12.6 W 11 22 6 12 1012.8 - 0.0
16/03:00pm 32.3 31.3 10.9 27 12.5 W 7 11 4 6 1012.9 1011.6 0.0
16/02:30pm 31.2 29.8 9.4 26 12.4 W 7 17 4 9 1013.2 - 0.0
16/02:00pm 31.2 30.1 10.5 28 12.0 S 7 15 4 8 1013.2 1011.9 0.0
16/01:30pm 31.1 29.5 11.5 30 11.5 WNW 11 15 6 8 1013.6 - 0.0
16/01:00pm 29.0 28.7 12.8 36 9.6 WSW 6 11 3 6 1014.3 1013.1 0.0
16/12:30pm 29.8 30.3 15.1 40 9.1 WNW 6 11 3 6 1014.6 - 0.0
16/12:00pm 29.0 29.6 15.9 45 8.2 NW 7 13 4 7 1015.1 1013.9 0.0

Other Formats:

Comma delimited format used in spreadsheet applications
http://www.bom.gov.au/fwo/IDQ60801/IDQ60801.94399.axf

JavaScript Object Notation format (JSON) in row-major order
http://www.bom.gov.au/fwo/IDQ60801/IDQ60801.94399.json